createdAt,value
2023-04-16T00:01:56.132Z,8.03
2023-04-16T00:04:23.200Z,8.00
2023-04-16T00:06:49.991Z,9.43
2023-04-16T00:09:16.715Z,9.07
2023-04-16T00:11:43.341Z,9.00
2023-04-16T00:14:09.988Z,8.97
2023-04-16T00:16:36.784Z,9.60
2023-04-16T00:19:03.497Z,8.83
2023-04-16T00:21:31.077Z,9.23
2023-04-16T00:23:57.912Z,9.50
2023-04-16T00:26:24.632Z,10.73
2023-04-16T00:28:51.291Z,9.33
2023-04-16T00:31:17.912Z,9.47
2023-04-16T00:33:44.634Z,10.50
2023-04-16T00:36:11.327Z,9.63
2023-04-16T00:38:37.934Z,10.37
2023-04-16T00:41:04.757Z,10.13
2023-04-16T00:43:31.681Z,10.17
2023-04-16T00:45:58.919Z,9.73
2023-04-16T00:48:28.054Z,9.23
2023-04-16T00:50:55.559Z,8.90
2023-04-16T00:53:22.645Z,10.20
2023-04-16T00:55:49.307Z,9.57
2023-04-16T00:58:16.476Z,10.17
2023-04-16T01:00:43.121Z,10.47
2023-04-16T01:03:10.433Z,10.30
2023-04-16T01:05:37.464Z,9.37
2023-04-16T01:08:04.189Z,9.47
2023-04-16T01:10:30.915Z,10.47
2023-04-16T01:12:57.592Z,10.50
2023-04-16T01:15:24.229Z,11.57
2023-04-16T01:17:51.054Z,9.57
2023-04-16T01:20:17.830Z,10.77
2023-04-16T01:22:44.513Z,11.03
2023-04-16T01:25:14.674Z,9.50
2023-04-16T01:27:41.585Z,10.57
2023-04-16T01:30:08.661Z,9.77
2023-04-16T01:32:35.411Z,9.73
2023-04-16T01:35:02.249Z,8.53
2023-04-16T01:37:29.375Z,9.77
2023-04-16T01:39:56.093Z,9.63
2023-04-16T01:42:22.752Z,9.70
2023-04-16T01:44:49.418Z,10.40
2023-04-16T01:47:16.176Z,8.80
2023-04-16T01:49:45.620Z,9.67
2023-04-16T01:52:12.295Z,9.40
2023-04-16T01:54:39.024Z,10.00
2023-04-16T01:57:05.873Z,8.63
2023-04-16T01:59:32.530Z,8.93
2023-04-16T02:02:13.474Z,8.63
2023-04-16T02:04:43.997Z,9.00
2023-04-16T02:07:11.504Z,9.07
2023-04-16T02:09:47.112Z,8.63
2023-04-16T02:12:13.965Z,7.97
2023-04-16T02:14:41.231Z,7.90
2023-04-16T02:17:07.842Z,8.17
2023-04-16T02:19:34.590Z,7.50
2023-04-16T02:22:03.969Z,7.20
2023-04-16T02:24:30.715Z,7.60
2023-04-16T02:27:00.816Z,7.73
2023-04-16T02:29:27.446Z,7.10
2023-04-16T02:31:54.267Z,6.70
2023-04-16T02:34:21.077Z,7.23
2023-04-16T02:36:47.776Z,7.70
2023-04-16T02:39:14.474Z,7.90
2023-04-16T02:41:41.269Z,7.40
2023-04-16T02:44:07.957Z,7.70
2023-04-16T02:46:34.614Z,7.77
2023-04-16T02:49:01.306Z,7.40
2023-04-16T02:51:28.064Z,7.30
2023-04-16T02:53:54.736Z,7.43
2023-04-16T02:56:21.350Z,7.40
2023-04-16T02:58:47.985Z,6.97
2023-04-16T03:01:14.711Z,7.27
2023-04-16T03:03:41.359Z,7.63
2023-04-16T03:06:08.041Z,7.60
2023-04-16T03:08:34.721Z,7.47
2023-04-16T03:11:01.564Z,7.43
2023-04-16T03:13:28.244Z,7.47
2023-04-16T03:15:54.921Z,6.73
2023-04-16T03:18:21.611Z,7.37
2023-04-16T03:20:52.793Z,7.43
2023-04-16T03:23:19.691Z,7.60
2023-04-16T03:25:47.974Z,7.83
2023-04-16T03:28:15.000Z,8.27
2023-04-16T03:30:41.735Z,7.27
2023-04-16T03:33:08.406Z,7.77
2023-04-16T03:35:35.370Z,7.40
2023-04-16T03:38:02.097Z,7.63
2023-04-16T03:40:28.771Z,7.67
2023-04-16T03:42:55.620Z,7.27
2023-04-16T03:45:22.288Z,7.13
2023-04-16T03:47:52.584Z,6.43
2023-04-16T03:50:19.809Z,7.60
2023-04-16T03:52:47.620Z,7.57
2023-04-16T03:55:14.307Z,7.93
2023-04-16T03:57:41.725Z,7.40
2023-04-16T04:00:09.000Z,7.80
2023-04-16T04:02:35.985Z,7.90
2023-04-16T04:05:02.858Z,9.23
2023-04-16T04:07:29.555Z,9.13
2023-04-16T04:09:56.216Z,9.10
2023-04-16T04:12:22.837Z,8.97
2023-04-16T04:14:49.447Z,8.60
2023-04-16T04:17:16.239Z,8.87
2023-04-16T04:19:54.323Z,8.23
2023-04-16T04:22:29.401Z,9.33
2023-04-16T04:24:56.018Z,8.43
2023-04-16T04:27:22.705Z,8.80
2023-04-16T04:29:49.352Z,10.13
2023-04-16T04:32:16.168Z,10.93
2023-04-16T04:34:42.773Z,10.63
2023-04-16T04:37:09.426Z,9.90
2023-04-16T04:39:36.133Z,10.33
2023-04-16T04:42:03.290Z,10.27
2023-04-16T04:44:30.005Z,11.23
2023-04-16T04:46:56.719Z,10.07
2023-04-16T04:49:23.349Z,10.53
2023-04-16T04:51:50.091Z,10.50
2023-04-16T04:54:16.763Z,10.47
2023-04-16T04:56:45.800Z,10.80
2023-04-16T04:59:12.752Z,10.70
2023-04-16T05:01:39.533Z,10.93
2023-04-16T05:04:06.355Z,10.17
2023-04-16T05:06:33.068Z,10.20
2023-04-16T05:08:59.738Z,11.40
2023-04-16T05:11:26.813Z,11.60
2023-04-16T05:13:53.571Z,11.23
2023-04-16T05:16:20.283Z,10.50
2023-04-16T05:18:47.067Z,10.73
2023-04-16T05:21:13.702Z,10.70
2023-04-16T05:23:40.398Z,10.53
2023-04-16T05:26:07.042Z,11.67
2023-04-16T05:28:33.812Z,11.10
2023-04-16T05:31:00.795Z,10.63
2023-04-16T05:33:27.471Z,11.60
2023-04-16T05:35:54.151Z,10.60
2023-04-16T05:38:20.747Z,9.50
2023-04-16T05:40:47.422Z,9.67
2023-04-16T05:43:14.123Z,9.60
2023-04-16T05:45:41.447Z,9.10
2023-04-16T05:48:11.754Z,8.47
2023-04-16T05:50:38.544Z,9.17
2023-04-16T05:53:09.007Z,8.60
2023-04-16T05:55:38.922Z,9.67
2023-04-16T05:58:05.866Z,9.90
2023-04-16T06:00:35.931Z,10.53
2023-04-16T06:03:03.137Z,12.77
2023-04-16T06:05:30.104Z,11.47
2023-04-16T06:07:56.867Z,13.23
2023-04-16T06:10:23.646Z,14.37
2023-04-16T06:12:50.413Z,14.73
2023-04-16T06:15:17.140Z,15.03
2023-04-16T06:17:43.849Z,14.33
2023-04-16T06:20:11.424Z,15.10
2023-04-16T06:22:38.158Z,15.23
2023-04-16T06:25:07.469Z,15.13
2023-04-16T06:27:34.240Z,15.30
2023-04-16T06:30:00.979Z,18.20
2023-04-16T06:32:27.779Z,18.07
2023-04-16T06:34:54.648Z,18.87
2023-04-16T06:37:21.404Z,19.80
2023-04-16T06:39:48.049Z,18.90
2023-04-16T06:42:14.752Z,19.13
2023-04-16T06:44:41.667Z,19.23
2023-04-16T06:47:08.393Z,20.80
2023-04-16T06:49:35.593Z,21.23
2023-04-16T06:52:04.639Z,20.80
2023-04-16T06:54:32.624Z,19.97
2023-04-16T06:56:59.281Z,20.97
2023-04-16T06:59:26.002Z,22.07
2023-04-16T07:01:52.945Z,20.23
2023-04-16T07:04:19.797Z,20.90
2023-04-16T07:06:46.687Z,20.50
2023-04-16T07:09:13.323Z,19.73
2023-04-16T07:11:40.781Z,21.07
2023-04-16T07:14:07.528Z,21.23
2023-04-16T07:16:34.240Z,20.43
2023-04-16T07:19:00.954Z,20.27
2023-04-16T07:21:27.734Z,22.10
2023-04-16T07:23:54.443Z,20.57
2023-04-16T07:26:21.049Z,20.77
2023-04-16T07:28:47.725Z,20.23
2023-04-16T07:31:14.486Z,21.60
2023-04-16T07:33:41.209Z,21.03
2023-04-16T07:36:07.984Z,21.57
2023-04-16T07:38:34.698Z,21.47
2023-04-16T07:41:01.531Z,21.13
2023-04-16T07:43:28.248Z,21.67
2023-04-16T07:45:55.068Z,20.90
2023-04-16T07:48:22.285Z,20.33
2023-04-16T07:50:50.072Z,20.53
2023-04-16T07:53:16.732Z,21.13
2023-04-16T07:55:43.545Z,21.03
2023-04-16T07:58:10.269Z,20.67
2023-04-16T08:00:37.312Z,19.97
2023-04-16T08:03:04.276Z,19.83
2023-04-16T08:05:31.206Z,20.80
2023-04-16T08:07:57.931Z,21.00
2023-04-16T08:10:24.646Z,19.83
2023-04-16T08:12:51.362Z,18.37
2023-04-16T08:15:18.065Z,17.97
2023-04-16T08:17:44.994Z,18.50
2023-04-16T08:20:14.999Z,18.27
2023-04-16T08:22:44.672Z,19.13
2023-04-16T08:25:11.382Z,19.40
2023-04-16T08:27:38.089Z,17.37
2023-04-16T08:30:05.400Z,17.23
2023-04-16T08:32:32.091Z,17.90
2023-04-16T08:34:58.802Z,18.47
2023-04-16T08:37:26.198Z,17.93
2023-04-16T08:39:53.038Z,16.87
2023-04-16T08:42:28.651Z,18.27
2023-04-16T08:45:11.205Z,17.03
2023-04-16T08:47:38.613Z,17.47
2023-04-16T08:50:06.530Z,16.40
2023-04-16T08:52:37.764Z,16.30
2023-04-16T08:55:13.404Z,16.60
2023-04-16T08:57:47.264Z,17.50
2023-04-16T09:00:14.616Z,18.13
2023-04-16T09:02:42.367Z,15.70
2023-04-16T09:05:11.040Z,15.73
2023-04-16T09:07:38.653Z,16.10
2023-04-16T09:10:08.276Z,17.00
2023-04-16T09:12:35.861Z,16.33
2023-04-16T09:15:03.731Z,15.33
2023-04-16T09:17:31.309Z,15.80
2023-04-16T09:19:58.385Z,15.03
2023-04-16T09:22:25.140Z,15.73
2023-04-16T09:24:51.937Z,14.77
2023-04-16T09:27:18.912Z,15.73
2023-04-16T09:29:46.257Z,16.13
2023-04-16T09:32:13.111Z,15.30
2023-04-16T09:35:09.076Z,15.40
2023-04-16T09:37:35.856Z,15.67
2023-04-16T09:40:04.845Z,15.07
2023-04-16T09:42:37.092Z,15.60
2023-04-16T09:45:05.718Z,15.20
2023-04-16T09:47:44.277Z,14.83
2023-04-16T09:50:18.292Z,15.53
2023-04-16T09:52:48.877Z,15.23
2023-04-16T09:55:15.718Z,15.90
2023-04-16T09:57:42.610Z,15.70
2023-04-16T10:00:10.638Z,15.77
2023-04-16T10:02:42.625Z,15.60
2023-04-16T10:05:09.962Z,16.03
2023-04-16T10:07:37.461Z,15.97
2023-04-16T10:10:05.367Z,15.87
2023-04-16T10:12:32.892Z,16.80
2023-04-16T10:15:00.112Z,15.37
2023-04-16T10:17:30.036Z,15.57
2023-04-16T10:19:57.998Z,16.80
2023-04-16T10:22:25.576Z,16.10
2023-04-16T10:24:53.183Z,14.97
2023-04-16T10:27:20.517Z,16.43
2023-04-16T10:29:47.819Z,16.03
2023-04-16T10:32:14.802Z,17.97
2023-04-16T10:34:42.148Z,15.90
2023-04-16T10:37:09.827Z,16.97
2023-04-16T10:39:39.906Z,15.37
2023-04-16T10:42:09.923Z,15.97
2023-04-16T10:44:36.713Z,16.27
2023-04-16T10:47:12.329Z,15.60
2023-04-16T10:49:39.585Z,15.13
2023-04-16T10:52:19.096Z,15.37
2023-04-16T10:54:48.140Z,15.53
2023-04-16T10:57:20.240Z,13.93
2023-04-16T10:59:49.285Z,14.87
2023-04-16T11:02:18.331Z,14.83
2023-04-16T11:04:47.434Z,15.10
2023-04-16T11:07:18.420Z,13.87
2023-04-16T11:10:02.191Z,14.13
2023-04-16T11:12:37.716Z,13.60
2023-04-16T11:15:12.234Z,12.80
2023-04-16T11:17:39.440Z,13.57
2023-04-16T11:20:20.131Z,13.80
2023-04-16T11:22:48.745Z,11.67
2023-04-16T11:25:30.500Z,11.43
2023-04-16T11:27:59.191Z,10.50
2023-04-16T11:30:35.932Z,10.37
2023-04-16T11:33:04.271Z,9.23
2023-04-16T11:35:31.487Z,10.20
2023-04-16T11:37:59.029Z,10.70
2023-04-16T11:40:29.591Z,10.30
2023-04-16T11:42:58.038Z,9.30
2023-04-16T11:45:25.780Z,9.57
2023-04-16T11:47:55.593Z,8.87
2023-04-16T11:50:26.099Z,7.60
2023-04-16T11:52:54.993Z,8.10
2023-04-16T11:55:22.636Z,6.60
2023-04-16T11:57:49.836Z,7.90
2023-04-16T12:00:19.193Z,7.27
2023-04-16T12:02:52.894Z,7.17
2023-04-16T12:05:38.812Z,7.17
2023-04-16T12:08:07.766Z,6.77
2023-04-16T12:10:36.726Z,7.20
2023-04-16T12:13:30.412Z,7.17
2023-04-16T12:15:57.254Z,7.00
2023-04-16T12:18:28.332Z,6.20
2023-04-16T12:20:55.434Z,6.13
2023-04-16T12:23:30.868Z,5.10
2023-04-16T12:26:02.810Z,6.17
2023-04-16T12:28:36.747Z,5.37
2023-04-16T12:31:04.644Z,5.40
2023-04-16T12:33:31.519Z,4.80
2023-04-16T12:35:58.440Z,5.70
2023-04-16T12:38:26.413Z,5.30
2023-04-16T12:40:56.664Z,4.83
2023-04-16T12:43:24.068Z,4.90
2023-04-16T12:45:50.988Z,4.37
2023-04-16T12:48:17.693Z,4.30
2023-04-16T12:50:44.623Z,4.53
2023-04-16T12:53:11.999Z,4.07
2023-04-16T12:55:38.790Z,4.93
2023-04-16T12:58:05.705Z,4.60
2023-04-16T13:00:32.821Z,4.73
2023-04-16T13:02:59.746Z,3.73
2023-04-16T13:05:27.091Z,3.90
2023-04-16T13:07:54.268Z,4.40
2023-04-16T13:10:21.996Z,4.40
2023-04-16T13:12:49.090Z,3.53
2023-04-16T13:15:16.102Z,3.70
2023-04-16T13:17:42.920Z,3.70
2023-04-16T13:20:10.513Z,3.60
2023-04-16T13:22:37.382Z,3.70
2023-04-16T13:25:04.564Z,3.73
2023-04-16T13:27:32.528Z,3.87
2023-04-16T13:29:59.493Z,4.30
2023-04-16T13:32:26.306Z,3.93
2023-04-16T13:34:53.124Z,3.97
2023-04-16T13:37:20.001Z,3.70
2023-04-16T13:39:47.454Z,4.37
2023-04-16T13:42:14.527Z,4.33
2023-04-16T13:44:41.347Z,4.43
2023-04-16T13:47:08.671Z,4.37
2023-04-16T13:49:36.323Z,4.30
2023-04-16T13:52:03.799Z,5.30
2023-04-16T13:54:30.916Z,5.40
2023-04-16T13:56:57.994Z,5.10
2023-04-16T13:59:25.013Z,5.93
2023-04-16T14:01:52.080Z,5.37
2023-04-16T14:04:19.284Z,5.67
2023-04-16T14:06:46.334Z,5.63
2023-04-16T14:09:13.403Z,5.87
2023-04-16T14:11:40.426Z,6.50
2023-04-16T14:14:07.414Z,7.03
2023-04-16T14:16:35.529Z,6.67
2023-04-16T14:19:02.576Z,7.67
2023-04-16T14:21:31.082Z,6.87
2023-04-16T14:23:57.967Z,6.57
2023-04-16T14:26:25.102Z,7.47
2023-04-16T14:28:52.220Z,7.20
2023-04-16T14:31:20.053Z,7.73
2023-04-16T14:33:47.166Z,7.50
2023-04-16T14:36:14.334Z,7.70
2023-04-16T14:38:43.238Z,7.73
2023-04-16T14:41:12.011Z,8.43
2023-04-16T14:43:40.540Z,7.77
2023-04-16T14:46:07.765Z,8.20
2023-04-16T14:48:34.720Z,8.03
2023-04-16T14:51:01.629Z,8.47
2023-04-16T14:53:29.142Z,8.20
2023-04-16T14:55:59.197Z,9.57
2023-04-16T14:58:26.924Z,8.90
2023-04-16T15:00:53.911Z,9.40
2023-04-16T15:03:20.974Z,9.03
2023-04-16T15:05:55.353Z,9.23
2023-04-16T15:08:22.938Z,9.23
2023-04-16T15:10:50.553Z,10.47
2023-04-16T15:13:17.859Z,10.13
2023-04-16T15:15:44.845Z,11.20
2023-04-16T15:18:12.022Z,11.10
2023-04-16T15:20:39.091Z,11.77
2023-04-16T15:23:05.910Z,10.90
2023-04-16T15:25:32.696Z,12.13
2023-04-16T15:27:59.518Z,11.80
2023-04-16T15:30:26.489Z,11.30
2023-04-16T15:32:55.066Z,12.13
2023-04-16T15:35:22.161Z,12.80
2023-04-16T15:37:48.987Z,13.00
2023-04-16T15:40:18.757Z,12.30
2023-04-16T15:42:45.631Z,13.27
2023-04-16T15:45:12.557Z,14.33
2023-04-16T15:47:41.687Z,13.70
2023-04-16T15:50:08.775Z,14.37
2023-04-16T15:52:36.420Z,13.37
2023-04-16T15:55:04.328Z,14.87
2023-04-16T15:57:31.402Z,13.50
2023-04-16T16:02:30.117Z,14.70
2023-04-16T16:04:56.964Z,15.63
2023-04-16T16:07:25.228Z,14.87
2023-04-16T16:09:53.197Z,13.83
2023-04-16T16:12:19.913Z,14.90
2023-04-16T16:14:46.671Z,14.90
2023-04-16T16:17:16.270Z,13.70
2023-04-16T16:19:45.221Z,13.37
2023-04-16T16:22:13.215Z,13.97
2023-04-16T16:24:39.980Z,13.80
2023-04-16T16:27:07.020Z,14.50
2023-04-16T16:29:33.706Z,15.87
2023-04-16T16:32:00.526Z,14.70
2023-04-16T16:34:28.266Z,15.57
2023-04-16T16:36:54.984Z,15.23
2023-04-16T16:39:24.418Z,15.30
2023-04-16T16:41:54.429Z,17.03
2023-04-16T16:44:21.854Z,16.27
2023-04-16T16:46:48.903Z,18.00
2023-04-16T16:49:16.533Z,18.37
2023-04-16T16:51:47.295Z,18.13
2023-04-16T16:54:14.471Z,18.87
2023-04-16T16:56:41.381Z,19.50
2023-04-16T16:59:09.082Z,18.73
2023-04-16T17:01:36.190Z,18.80
2023-04-16T17:04:03.150Z,19.60
2023-04-16T17:06:30.210Z,19.93
2023-04-16T17:08:56.987Z,19.17
2023-04-16T17:11:26.926Z,19.33
2023-04-16T17:13:53.878Z,20.07
2023-04-16T17:16:20.870Z,20.53
2023-04-16T17:18:47.622Z,20.77
2023-04-16T17:21:16.394Z,20.37
2023-04-16T17:23:43.483Z,20.40
2023-04-16T17:26:10.278Z,21.00
2023-04-16T17:28:37.183Z,21.20
2023-04-16T17:31:06.927Z,23.07
2023-04-16T17:33:33.752Z,21.97
2023-04-16T17:36:00.732Z,21.47
2023-04-16T17:38:27.484Z,21.83
2023-04-16T17:40:54.298Z,22.30
2023-04-16T17:43:21.287Z,23.07
2023-04-16T17:45:48.080Z,21.70
2023-04-16T17:48:14.904Z,21.63
2023-04-16T17:50:41.742Z,19.20
2023-04-16T17:53:08.496Z,20.57
2023-04-16T17:55:35.783Z,22.10
2023-04-16T17:58:04.213Z,20.60
2023-04-16T18:00:31.320Z,20.70
2023-04-16T18:02:59.713Z,22.97
2023-04-16T18:05:27.452Z,20.90
2023-04-16T18:07:55.525Z,22.67
2023-04-16T18:10:22.474Z,23.13
2023-04-16T18:12:50.524Z,21.13
2023-04-16T18:15:17.362Z,22.80
2023-04-16T18:17:44.235Z,23.97
2023-04-16T18:20:12.715Z,22.47
2023-04-16T18:22:39.610Z,21.30
2023-04-16T18:25:07.109Z,21.80
2023-04-16T18:27:34.314Z,23.13
2023-04-16T18:30:01.314Z,21.97
2023-04-16T18:32:31.046Z,23.53
2023-04-16T18:34:58.211Z,23.30
2023-04-16T18:37:24.973Z,22.23
2023-04-16T18:39:51.720Z,23.07
2023-04-16T18:42:18.419Z,23.27
2023-04-16T18:44:52.058Z,25.37
2023-04-16T18:47:18.888Z,21.20
2023-04-16T18:49:45.754Z,22.00
2023-04-16T18:52:12.755Z,21.80
2023-04-16T18:54:40.739Z,21.93
2023-04-16T18:57:07.532Z,21.37
2023-04-16T18:59:34.280Z,22.40
2023-04-16T19:02:01.140Z,19.80
2023-04-16T19:04:27.923Z,20.70
2023-04-16T19:06:54.801Z,20.90
2023-04-16T19:09:21.564Z,20.43
2023-04-16T19:11:50.562Z,22.07
2023-04-16T19:14:17.485Z,21.90
2023-04-16T19:16:44.458Z,22.10
2023-04-16T19:19:11.485Z,23.30
2023-04-16T19:21:38.388Z,21.80
2023-04-16T19:24:05.550Z,18.83
2023-04-16T19:26:32.397Z,20.27
2023-04-16T19:28:59.739Z,21.57
2023-04-16T19:31:26.933Z,22.57
2023-04-16T19:33:53.636Z,19.97
2023-04-16T19:36:20.727Z,22.00
2023-04-16T19:38:47.516Z,20.63
2023-04-16T19:41:14.447Z,20.73
2023-04-16T19:43:41.614Z,20.20
2023-04-16T19:46:08.537Z,21.00
2023-04-16T19:48:35.317Z,21.27
2023-04-16T19:51:05.693Z,19.67
2023-04-16T19:53:32.594Z,19.67
2023-04-16T19:55:59.315Z,19.73
2023-04-16T19:58:26.269Z,21.03
2023-04-16T20:00:53.026Z,19.93
2023-04-16T20:03:19.871Z,19.23
2023-04-16T20:05:49.694Z,18.97
2023-04-16T20:08:16.608Z,19.90
2023-04-16T20:10:43.396Z,19.83
2023-04-16T20:13:12.051Z,20.30
2023-04-16T20:15:38.858Z,20.10
2023-04-16T20:18:07.850Z,19.27
2023-04-16T20:20:40.325Z,18.83
2023-04-16T20:23:07.137Z,18.40
2023-04-16T20:25:33.852Z,19.17
2023-04-16T20:28:00.734Z,19.37
2023-04-16T20:30:29.465Z,19.77
2023-04-16T20:32:56.561Z,19.17
2023-04-16T20:35:23.464Z,20.47
2023-04-16T20:37:50.174Z,19.77
2023-04-16T20:40:17.033Z,20.53
2023-04-16T20:42:46.339Z,21.07
2023-04-16T20:45:13.366Z,19.43
2023-04-16T20:47:40.130Z,19.03
2023-04-16T20:50:07.612Z,19.33
2023-04-16T20:52:34.370Z,19.40
2023-04-16T20:55:01.136Z,18.90
2023-04-16T20:57:29.586Z,19.33
2023-04-16T20:59:56.556Z,19.10
2023-04-16T21:02:24.440Z,19.90
2023-04-16T21:04:51.559Z,17.67
2023-04-16T21:07:18.384Z,19.10
2023-04-16T21:09:45.499Z,19.63
2023-04-16T21:12:12.313Z,17.70
2023-04-16T21:14:39.053Z,18.53
2023-04-16T21:17:05.797Z,17.43
2023-04-16T21:19:35.382Z,17.93
2023-04-16T21:22:02.785Z,17.60
2023-04-16T21:24:29.498Z,17.07
2023-04-16T21:26:57.364Z,18.03
2023-04-16T21:29:24.067Z,19.17
2023-04-16T21:31:51.028Z,17.53
2023-04-16T21:34:17.980Z,17.67
2023-04-16T21:36:44.710Z,17.30
2023-04-16T21:39:11.699Z,17.50
2023-04-16T21:41:38.750Z,17.90
2023-04-16T21:44:05.557Z,16.90
2023-04-16T21:46:32.208Z,17.80
2023-04-16T21:48:58.900Z,16.87
2023-04-16T21:51:29.792Z,16.33
2023-04-16T21:53:57.056Z,16.63
2023-04-16T21:56:27.062Z,16.17
2023-04-16T21:58:53.779Z,15.60
2023-04-16T22:01:20.588Z,16.93
2023-04-16T22:03:50.385Z,15.27
2023-04-16T22:06:17.581Z,14.07
2023-04-16T22:08:44.397Z,14.77
2023-04-16T22:11:11.097Z,14.07
2023-04-16T22:13:40.865Z,13.03
2023-04-16T22:16:09.399Z,13.67
2023-04-16T22:18:38.650Z,13.57
2023-04-16T22:21:05.444Z,13.63
2023-04-16T22:23:32.168Z,14.20
2023-04-16T22:25:58.850Z,14.77
2023-04-16T22:28:25.515Z,14.60
2023-04-16T22:30:52.188Z,14.70
2023-04-16T22:33:18.869Z,14.60
2023-04-16T22:35:46.153Z,14.93
2023-04-16T22:38:12.819Z,15.13
2023-04-16T22:40:39.517Z,14.60
2023-04-16T22:43:06.143Z,14.73
2023-04-16T22:45:32.867Z,16.00
2023-04-16T22:47:59.561Z,16.57
2023-04-16T22:50:31.306Z,15.73
2023-04-16T22:52:58.314Z,15.20
2023-04-16T22:55:25.075Z,15.30
2023-04-16T22:57:52.038Z,15.63
2023-04-16T23:00:19.311Z,16.80
2023-04-16T23:02:46.106Z,16.17
2023-04-16T23:05:12.888Z,15.93
2023-04-16T23:07:39.545Z,14.83
2023-04-16T23:10:08.250Z,16.23
2023-04-16T23:12:37.171Z,15.80
2023-04-16T23:15:05.194Z,15.37
2023-04-16T23:17:32.516Z,16.00
2023-04-16T23:19:59.140Z,16.40
2023-04-16T23:22:25.849Z,16.47
2023-04-16T23:24:52.636Z,16.43
2023-04-16T23:27:19.250Z,15.60
2023-04-16T23:29:45.958Z,16.27
2023-04-16T23:32:12.545Z,16.17
2023-04-16T23:34:39.252Z,16.53
2023-04-16T23:37:05.902Z,15.70
2023-04-16T23:39:32.612Z,16.07
2023-04-16T23:41:59.599Z,14.90
2023-04-16T23:44:26.239Z,14.60
2023-04-16T23:46:52.933Z,15.10
2023-04-16T23:49:19.630Z,14.10
2023-04-16T23:51:46.302Z,14.27
2023-04-16T23:54:12.967Z,15.40
2023-04-16T23:56:39.715Z,14.80
2023-04-16T23:59:06.394Z,14.60
